Time;durP1;ratioP1;P1;durP2;ratioP2;P2;SDS_P1;SDS_P2;PMS_P1;PMS_P2;Temp;Humidity;BMP_temperature;BMP_pressure;BME280_temperature;BME280_humidity;BME280_pressure;Samples;Min_cycle;Max_cycle;Signal;HPM_P1;HPM_P2
2020/12/01 00:00:01;;;;;;;45.93;26.87;;;1.70;99.90;;;;;;5013245;28;20506;-65
2020/12/01 00:02:26;;;;;;;42.10;25.33;;;1.70;99.90;;;;;;5013178;28;20638;-66
2020/12/01 00:04:52;;;;;;;42.47;23.70;;;1.80;99.90;;;;;;5012984;28;20235;-64
2020/12/01 00:07:18;;;;;;;44.90;25.07;;;1.80;99.90;;;;;;4995469;28;20177;-65
2020/12/01 00:09:44;;;;;;;42.23;26.40;;;1.80;99.90;;;;;;5013309;28;20176;-64
2020/12/01 00:12:10;;;;;;;35.50;20.20;;;1.80;99.90;;;;;;4993802;28;20195;-62
2020/12/01 00:14:36;;;;;;;31.70;18.73;;;1.80;99.90;;;;;;5012952;28;20917;-63
2020/12/01 00:17:02;;;;;;;38.30;22.77;;;1.80;99.90;;;;;;5013204;28;20446;-63
2020/12/01 00:19:27;;;;;;;42.70;23.97;;;1.80;99.90;;;;;;5012728;28;20188;-66
2020/12/01 00:21:53;;;;;;;45.60;25.80;;;1.80;99.90;;;;;;4979132;28;20184;-63
2020/12/01 00:24:19;;;;;;;33.33;20.57;;;1.80;99.90;;;;;;4995092;28;20232;-64
2020/12/01 00:26:45;;;;;;;44.23;25.90;;;1.80;99.90;;;;;;5012702;28;21753;-64
2020/12/01 00:29:11;;;;;;;43.30;24.63;;;1.80;99.90;;;;;;4993908;28;20181;-65
2020/12/01 00:31:41;;;;;;;34.77;20.37;;;1.80;99.90;;;;;;5013107;28;20183;-65
2020/12/01 00:34:08;;;;;;;46.03;26.40;;;1.80;99.90;;;;;;5012748;28;20180;-64
2020/12/01 00:36:34;;;;;;;29.73;17.40;;;1.80;99.90;;;;;;5012910;28;21001;-65
2020/12/01 00:39:00;;;;;;;44.17;24.57;;;1.70;99.90;;;;;;5012797;28;20510;-65
2020/12/01 00:41:26;;;;;;;45.03;27.47;;;1.70;99.90;;;;;;4978617;28;20172;-66
2020/12/01 00:43:52;;;;;;;36.10;21.37;;;1.70;99.90;;;;;;5012703;28;20187;-64
2020/12/01 00:46:18;;;;;;;28.97;17.23;;;1.70;99.90;;;;;;5014590;28;20952;-66
2020/12/01 00:48:44;;;;;;;42.67;22.83;;;1.60;99.90;;;;;;5012331;28;20183;-64
2020/12/01 00:51:12;;;;;;;37.00;22.10;;;1.60;99.90;;;;;;4994775;28;20183;-66
2020/12/01 00:53:37;;;;;;;32.30;19.20;;;1.60;99.90;;;;;;5012624;28;20177;-63
2020/12/01 00:56:03;;;;;;;25.00;14.47;;;1.60;99.90;;;;;;5012038;28;20423;-63
2020/12/01 00:58:28;;;;;;;51.13;29.67;;;1.60;99.90;;;;;;5012713;28;20176;-66
2020/12/01 01:00:54;;;;;;;47.23;25.87;;;1.60;99.90;;;;;;5011934;28;20727;-67
2020/12/01 01:03:20;;;;;;;41.97;24.00;;;1.60;99.90;;;;;;5012607;28;20192;-67
2020/12/01 01:05:45;;;;;;;28.43;16.20;;;1.50;99.90;;;;;;5012260;28;20204;-66
2020/12/01 01:08:11;;;;;;;40.90;25.83;;;1.50;99.90;;;;;;5011735;28;20183;-62
2020/12/01 01:10:37;;;;;;;46.20;28.47;;;1.50;99.90;;;;;;5011877;28;20177;-66
2020/12/01 01:13:03;;;;;;;41.27;23.57;;;1.50;99.90;;;;;;5012100;28;20207;-66
2020/12/01 01:15:31;;;;;;;40.53;24.13;;;1.40;99.90;;;;;;5011608;28;20640;-64
2020/12/01 01:17:58;;;;;;;48.13;26.63;;;1.40;99.90;;;;;;5011750;28;20527;-65
2020/12/01 01:20:24;;;;;;;46.10;28.30;;;1.50;99.90;;;;;;5011944;28;20451;-66
2020/12/01 01:22:50;;;;;;;48.60;27.80;;;1.40;99.90;;;;;;5011807;28;20447;-66
2020/12/01 01:25:15;;;;;;;36.60;18.43;;;1.50;99.90;;;;;;5011386;28;20462;-63
2020/12/01 01:27:41;;;;;;;43.23;24.97;;;1.50;99.90;;;;;;5011900;28;20574;-65
2020/12/01 01:30:07;;;;;;;43.07;26.23;;;1.50;99.90;;;;;;5011787;28;20176;-65
2020/12/01 01:32:33;;;;;;;46.27;27.00;;;1.50;99.90;;;;;;5011874;28;20231;-65
2020/12/01 01:34:59;;;;;;;45.10;26.60;;;1.50;99.90;;;;;;5011458;28;20423;-64
2020/12/01 01:37:25;;;;;;;40.10;24.30;;;1.50;99.90;;;;;;4993621;28;20177;-66
2020/12/01 01:39:50;;;;;;;40.77;25.50;;;1.50;99.90;;;;;;5011402;28;20271;-64
2020/12/01 01:42:16;;;;;;;30.13;17.17;;;1.50;99.90;;;;;;5011284;28;20256;-62
2020/12/01 01:44:42;;;;;;;41.60;24.87;;;1.50;99.90;;;;;;5011347;28;20208;-66
2020/12/01 01:47:31;;;;;;;43.90;25.30;;;1.50;99.90;;;;;;5012656;28;20223;-62
2020/12/01 01:50:18;;;;;;;39.27;21.33;;;1.50;99.90;;;;;;5011394;28;20550;-65
2020/12/01 01:52:49;;;;;;;23.03;15.03;;;1.50;99.90;;;;;;5010304;28;20783;-66
2020/12/01 01:55:18;;;;;;;39.33;25.20;;;1.50;99.90;;;;;;5011348;28;20411;-66
2020/12/01 01:57:50;;;;;;;44.33;26.63;;;1.50;99.90;;;;;;4993288;28;20433;-64
2020/12/01 02:01:10;;;;;;;44.13;27.03;;;1.50;99.90;;;;;;5011179;28;20479;-64
2020/12/01 02:03:43;;;;;;;48.90;27.13;;;1.50;99.90;;;;;;5007919;28;20435;-65
2020/12/01 02:06:15;;;;;;;46.93;27.70;;;1.50;99.90;;;;;;5011228;28;20932;-66
2020/12/01 02:08:45;;;;;;;36.13;20.10;;;1.40;99.90;;;;;;5010839;28;20419;-63
2020/12/01 02:11:11;;;;;;;32.43;16.63;;;1.40;99.90;;;;;;5011050;28;20790;-64
2020/12/01 02:13:43;;;;;;;47.07;28.23;;;1.40;99.90;;;;;;5011138;28;20862;-64
2020/12/01 02:16:09;;;;;;;45.37;27.70;;;1.40;99.90;;;;;;5011281;28;20411;-64
2020/12/01 02:18:37;;;;;;;47.37;27.47;;;1.40;99.90;;;;;;5010837;28;20518;-66
2020/12/01 02:21:26;;;;;;;45.40;26.67;;;1.40;99.90;;;;;;5011041;28;20179;-63
2020/12/01 02:23:52;;;;;;;45.67;28.50;;;1.40;99.90;;;;;;5010835;28;20438;-66
2020/12/01 02:26:17;;;;;;;47.60;26.67;;;1.40;99.90;;;;;;5011025;28;20459;-64
2020/12/01 02:28:43;;;;;;;44.03;26.10;;;1.50;99.90;;;;;;5014518;28;20287;-63
2020/12/01 02:31:09;;;;;;;42.87;26.03;;;1.50;99.90;;;;;;5014856;28;20172;-67
2020/12/01 02:33:34;;;;;;;46.93;26.67;;;1.50;99.90;;;;;;5014751;28;20542;-64
2020/12/01 02:36:00;;;;;;;42.10;25.97;;;1.50;99.90;;;;;;5014227;28;20635;-64
2020/12/01 02:38:25;;;;;;;44.70;25.33;;;1.50;99.90;;;;;;5014686;28;20184;-66
2020/12/01 02:40:51;;;;;;;47.10;26.90;;;1.50;99.90;;;;;;5014267;28;20191;-64
2020/12/01 02:43:16;;;;;;;40.33;25.40;;;1.50;99.90;;;;;;5014562;28;20180;-63
2020/12/01 02:45:42;;;;;;;43.20;25.30;;;1.50;99.90;;;;;;5014304;28;20231;-66
2020/12/01 02:48:07;;;;;;;40.13;24.90;;;1.50;99.90;;;;;;5015833;28;20216;-63
2020/12/01 02:50:33;;;;;;;40.67;25.43;;;1.50;99.90;;;;;;5014566;28;20172;-65
2020/12/01 02:52:59;;;;;;;43.77;26.63;;;1.40;99.90;;;;;;5014593;28;20177;-64
2020/12/01 02:55:24;;;;;;;48.40;25.73;;;1.40;99.90;;;;;;5014339;28;20228;-65
2020/12/01 02:57:50;;;;;;;44.23;26.23;;;1.40;99.90;;;;;;5014233;28;20173;-64
2020/12/01 03:00:15;;;;;;;43.70;25.53;;;1.40;99.90;;;;;;5014341;28;20529;-64
2020/12/01 03:02:41;;;;;;;42.43;26.13;;;1.40;99.90;;;;;;5014731;28;20184;-66
2020/12/01 03:05:06;;;;;;;42.83;24.63;;;1.40;99.90;;;;;;5013769;28;20594;-64
2020/12/01 03:07:32;;;;;;;43.20;24.67;;;1.30;99.90;;;;;;5014018;28;20705;-65
2020/12/01 03:09:57;;;;;;;43.77;25.17;;;1.30;99.90;;;;;;4996220;28;20224;-63
2020/12/01 03:12:23;;;;;;;38.30;24.23;;;1.40;99.90;;;;;;5014018;28;20177;-66
2020/12/01 03:14:49;;;;;;;43.67;26.33;;;1.40;99.90;;;;;;5014053;28;20208;-66
2020/12/01 03:17:14;;;;;;;36.40;22.60;;;1.40;99.90;;;;;;5012447;28;20570;-64
2020/12/01 03:19:40;;;;;;;35.63;21.97;;;1.50;99.90;;;;;;5014034;28;20211;-64
2020/12/01 03:22:06;;;;;;;33.10;20.53;;;1.60;99.90;;;;;;5013670;28;20694;-65
2020/12/01 03:24:31;;;;;;;35.40;22.37;;;1.60;99.90;;;;;;5013585;28;20653;-65
2020/12/01 03:26:57;;;;;;;35.23;21.43;;;1.60;99.90;;;;;;5013759;28;20278;-65
2020/12/01 03:29:22;;;;;;;32.70;20.83;;;1.60;99.90;;;;;;5013602;28;20594;-63
2020/12/01 03:31:48;;;;;;;32.93;22.00;;;1.60;99.90;;;;;;5013542;28;20187;-66
2020/12/01 03:34:13;;;;;;;30.00;19.43;;;1.60;99.90;;;;;;5013726;28;20180;-64
2020/12/01 03:36:39;;;;;;;30.63;19.67;;;1.60;99.90;;;;;;5013360;28;20263;-64
2020/12/01 03:39:05;;;;;;;31.03;19.93;;;1.60;99.90;;;;;;5012903;28;20181;-63
2020/12/01 03:41:30;;;;;;;33.30;21.10;;;1.60;99.90;;;;;;5013294;28;20172;-62
2020/12/01 03:43:56;;;;;;;34.73;20.20;;;1.60;99.90;;;;;;5013452;28;20180;-64
2020/12/01 03:46:22;;;;;;;31.80;20.23;;;1.60;99.90;;;;;;5014732;28;20654;-65
2020/12/01 03:48:47;;;;;;;31.63;20.37;;;1.60;99.90;;;;;;5013121;28;20215;-67
2020/12/01 03:51:13;;;;;;;30.40;19.13;;;1.60;99.90;;;;;;5013082;28;20172;-67
2020/12/01 03:53:38;;;;;;;31.23;20.07;;;1.50;99.90;;;;;;5013130;28;20256;-67
2020/12/01 03:56:04;;;;;;;30.40;19.83;;;1.50;99.90;;;;;;5013006;28;20199;-66
2020/12/01 03:58:29;;;;;;;29.13;18.63;;;1.50;99.90;;;;;;5013309;28;20239;-65
2020/12/01 04:00:55;;;;;;;30.07;19.00;;;1.60;99.90;;;;;;5013091;28;20184;-64
2020/12/01 04:03:21;;;;;;;28.30;19.50;;;1.60;99.90;;;;;;5013017;28;20176;-65
2020/12/01 04:05:46;;;;;;;30.17;19.40;;;1.60;99.90;;;;;;5012649;28;20204;-65
2020/12/01 04:08:12;;;;;;;30.00;19.40;;;1.60;99.90;;;;;;5013039;28;20641;-65
2020/12/01 04:10:38;;;;;;;29.37;19.83;;;1.70;99.90;;;;;;5013015;28;20173;-64
2020/12/01 04:13:04;;;;;;;27.63;18.47;;;1.70;99.90;;;;;;5012880;28;20184;-65
2020/12/01 04:15:30;;;;;;;29.23;18.77;;;1.70;99.90;;;;;;5012585;28;20562;-66
2020/12/01 04:17:55;;;;;;;29.00;18.57;;;1.70;99.90;;;;;;5012563;28;20511;-63
2020/12/01 04:20:21;;;;;;;29.97;18.80;;;1.70;99.90;;;;;;5012539;28;20674;-64
2020/12/01 04:22:47;;;;;;;29.47;18.13;;;1.70;99.90;;;;;;5012813;28;20259;-66
2020/12/01 04:25:15;;;;;;;29.43;18.57;;;1.70;99.90;;;;;;5012599;28;20207;-64
2020/12/01 04:27:41;;;;;;;24.40;17.00;;;1.70;99.90;;;;;;5012480;28;20419;-63
2020/12/01 04:30:08;;;;;;;27.20;16.53;;;1.80;99.90;;;;;;5012136;28;20435;-64
2020/12/01 04:32:34;;;;;;;25.33;16.43;;;1.80;99.90;;;;;;5012582;28;20188;-63
2020/12/01 04:35:00;;;;;;;26.03;16.63;;;1.80;99.90;;;;;;5012150;28;20431;-64
2020/12/01 04:37:26;;;;;;;27.63;17.10;;;1.90;99.90;;;;;;5012567;28;20423;-64
2020/12/01 04:39:52;;;;;;;28.67;17.93;;;1.90;99.90;;;;;;5012567;28;20419;-65
2020/12/01 04:42:19;;;;;;;28.50;16.43;;;1.80;99.90;;;;;;5012210;28;20185;-64
2020/12/01 04:45:03;;;;;;;30.47;17.30;;;1.80;99.90;;;;;;5012261;28;20200;-64
2020/12/01 04:47:36;;;;;;;25.63;16.27;;;1.80;99.90;;;;;;5013645;28;20945;-64
2020/12/01 04:50:07;;;;;;;27.33;16.93;;;1.70;99.90;;;;;;5011207;28;20408;-65
2020/12/01 04:52:41;;;;;;;25.00;16.60;;;1.70;99.90;;;;;;5011903;28;20921;-67
2020/12/01 04:55:19;;;;;;;23.70;15.50;;;1.70;99.90;;;;;;5012051;28;20426;-64
2020/12/01 04:58:30;;;;;;;22.67;15.67;;;1.70;99.90;;;;;;5012175;28;20513;-62
2020/12/01 05:01:08;;;;;;;22.10;15.50;;;1.70;99.90;;;;;;5011684;28;20906;-64
2020/12/01 05:03:46;;;;;;;25.07;16.67;;;1.80;99.90;;;;;;5011865;28;20936;-65
2020/12/01 05:09:53;;;;;;;21.20;13.77;;;1.90;99.90;;;;;;5011655;28;21554;-63
2020/12/01 05:12:36;;;;;;;21.83;14.50;;;1.90;99.90;;;;;;5011742;28;20419;-64
2020/12/01 05:15:18;;;;;;;24.03;14.80;;;1.90;99.90;;;;;;5011790;28;20426;-66
2020/12/01 05:18:04;;;;;;;18.27;12.77;;;2.00;99.90;;;;;;5011452;28;20423;-65
2020/12/01 05:20:30;;;;;;;21.47;13.23;;;2.00;99.90;;;;;;5011441;28;20418;-65
2020/12/01 05:23:00;;;;;;;20.33;13.20;;;2.10;99.90;;;;;;5011470;28;20408;-63
2020/12/01 05:25:29;;;;;;;21.27;13.73;;;2.10;99.90;;;;;;5011687;28;20935;-65
2020/12/01 05:28:17;;;;;;;23.50;14.93;;;2.00;99.90;;;;;;5011393;28;20411;-63
2020/12/01 05:30:44;;;;;;;25.50;14.73;;;2.10;99.90;;;;;;5011500;28;20419;-63
2020/12/01 05:33:30;;;;;;;23.50;14.33;;;2.10;99.90;;;;;;5011497;28;20414;-66
2020/12/01 05:36:05;;;;;;;19.67;13.63;;;2.10;99.90;;;;;;5011498;28;20785;-66
2020/12/01 05:38:32;;;;;;;22.03;14.00;;;2.10;99.90;;;;;;5011655;28;20415;-65
2020/12/01 05:41:20;;;;;;;20.97;13.40;;;2.00;99.90;;;;;;5011348;28;20415;-67
2020/12/01 05:43:52;;;;;;;21.63;13.17;;;2.10;99.90;;;;;;4993458;28;20434;-68
2020/12/01 05:46:30;;;;;;;21.17;14.77;;;2.10;99.90;;;;;;5012605;28;20474;-69
2020/12/01 05:48:57;;;;;;;20.53;13.83;;;2.00;99.90;;;;;;5011174;28;20418;-67
2020/12/01 05:51:42;;;;;;;20.93;14.50;;;2.00;99.90;;;;;;4993796;28;20450;-65
2020/12/01 05:54:23;;;;;;;24.80;15.47;;;1.90;99.90;;;;;;5010222;28;20498;-69
2020/12/01 05:56:53;;;;;;;23.40;16.20;;;1.80;99.90;;;;;;5011485;28;20423;-67
2020/12/01 05:59:21;;;;;;;23.87;16.87;;;1.80;99.90;;;;;;5011291;28;20432;-65
2020/12/01 06:01:52;;;;;;;24.73;16.83;;;1.80;99.90;;;;;;5013381;28;20424;-66
2020/12/01 06:04:22;;;;;;;23.07;15.07;;;1.70;99.90;;;;;;5015092;28;20419;-68
2020/12/01 06:07:11;;;;;;;18.53;12.07;;;1.80;99.90;;;;;;5014996;28;20415;-69
2020/12/01 06:09:53;;;;;;;23.60;14.83;;;1.80;99.90;;;;;;5015287;28;20419;-67
2020/12/01 06:12:37;;;;;;;29.40;19.90;;;1.70;99.90;;;;;;5014871;28;20415;-66
2020/12/01 06:15:13;;;;;;;29.27;17.87;;;1.80;99.90;;;;;;5014557;28;20438;-63
2020/12/01 06:18:16;;;;;;;26.57;17.63;;;1.70;99.90;;;;;;5014874;28;20427;-65
2020/12/01 06:21:01;;;;;;;9.73;6.30;;;1.70;99.90;;;;;;5014774;28;20418;-64
2020/12/01 06:23:42;;;;;;;24.83;15.30;;;1.70;99.90;;;;;;5015046;28;20913;-64
2020/12/01 06:26:18;;;;;;;33.33;19.20;;;1.70;99.90;;;;;;5014468;28;20461;-65
2020/12/01 06:29:05;;;;;;;29.37;18.67;;;1.70;99.90;;;;;;5014281;28;20430;-66
2020/12/01 06:31:41;;;;;;;34.27;20.67;;;1.70;99.90;;;;;;5014450;28;20407;-66
2020/12/01 06:34:44;;;;;;;24.60;13.77;;;1.70;99.90;;;;;;5014378;28;20415;-66
2020/12/01 06:37:28;;;;;;;32.50;19.87;;;1.70;99.90;;;;;;5014577;28;20422;-68
2020/12/01 06:40:41;;;;;;;31.07;18.33;;;1.70;99.90;;;;;;5014423;28;20510;-66
2020/12/01 06:43:09;;;;;;;31.37;19.00;;;1.80;99.90;;;;;;4970426;28;20442;-69
2020/12/01 06:45:40;;;;;;;31.40;20.63;;;1.90;99.90;;;;;;5014052;28;20941;-65
2020/12/01 06:48:21;;;;;;;32.47;20.77;;;1.80;99.90;;;;;;5014256;28;20462;-66
2020/12/01 06:50:55;;;;;;;34.40;19.87;;;1.90;99.90;;;;;;5014501;28;20419;-64
2020/12/01 06:53:33;;;;;;;31.50;19.00;;;1.90;99.90;;;;;;5014353;28;20510;-65
2020/12/01 06:56:13;;;;;;;33.63;19.53;;;1.90;99.90;;;;;;5014115;28;20436;-66
2020/12/01 06:58:46;;;;;;;30.83;19.63;;;2.00;99.90;;;;;;5014125;28;20427;-64
2020/12/01 07:01:15;;;;;;;28.23;18.27;;;2.00;99.90;;;;;;5013964;28;20429;-66
2020/12/01 07:03:41;;;;;;;27.97;17.90;;;2.00;99.90;;;;;;5014128;28;20535;-68
2020/12/01 07:06:18;;;;;;;28.10;19.00;;;2.10;99.90;;;;;;5013938;28;20462;-65
2020/12/01 07:08:44;;;;;;;31.57;18.93;;;2.10;99.90;;;;;;5014250;28;20419;-66
2020/12/01 07:11:27;;;;;;;30.57;18.17;;;2.00;99.90;;;;;;5013633;28;20492;-64
2020/12/01 07:14:25;;;;;;;22.17;12.13;;;2.00;99.90;;;;;;5012798;28;20495;-65
2020/12/01 07:16:51;;;;;;;23.00;15.43;;;2.00;99.90;;;;;;5007090;28;20433;-66
2020/12/01 07:19:35;;;;;;;14.63;10.53;;;2.00;99.90;;;;;;5013297;28;20905;-66
2020/12/01 07:22:17;;;;;;;25.67;13.90;;;1.90;99.90;;;;;;5013404;28;20222;-65
2020/12/01 07:25:04;;;;;;;33.50;17.27;;;1.90;99.90;;;;;;5011520;28;20824;-66
2020/12/01 07:27:34;;;;;;;27.73;16.53;;;1.90;99.90;;;;;;5012001;28;20415;-66
2020/12/01 07:30:19;;;;;;;25.60;16.07;;;1.90;99.90;;;;;;5012651;28;20438;-66
2020/12/01 07:32:57;;;;;;;30.93;18.00;;;1.90;99.90;;;;;;5012934;28;20411;-66
2020/12/01 07:35:41;;;;;;;34.93;20.93;;;1.90;99.90;;;;;;5013324;28;20411;-67
2020/12/01 07:38:27;;;;;;;30.90;19.13;;;1.90;99.90;;;;;;5013541;28;20436;-66
2020/12/01 07:41:13;;;;;;;29.93;17.30;;;2.00;99.90;;;;;;5013311;28;20502;-64
2020/12/01 07:43:39;;;;;;;35.03;20.63;;;2.00;99.90;;;;;;5013144;28;20415;-65
2020/12/01 07:46:05;;;;;;;35.20;18.23;;;1.90;99.90;;;;;;5013207;28;20533;-65
2020/12/01 07:48:31;;;;;;;26.93;16.47;;;1.90;99.90;;;;;;5015014;28;20447;-66
2020/12/01 07:51:05;;;;;;;31.87;19.33;;;1.90;99.90;;;;;;5013123;28;20419;-65
2020/12/01 07:53:38;;;;;;;32.83;18.63;;;1.80;99.90;;;;;;5013126;28;20168;-64
2020/12/01 07:56:06;;;;;;;35.17;20.40;;;1.80;99.90;;;;;;5013219;28;20420;-64
2020/12/01 07:58:31;;;;;;;34.47;20.53;;;1.80;99.90;;;;;;5012950;28;20478;-67
2020/12/01 08:01:01;;;;;;;26.13;14.63;;;1.80;99.90;;;;;;5013074;28;20921;-67
2020/12/01 08:03:34;;;;;;;38.27;21.17;;;1.80;99.90;;;;;;5013013;28;20180;-66
2020/12/01 08:06:06;;;;;;;31.37;19.70;;;1.80;99.90;;;;;;5012661;28;20470;-63
2020/12/01 08:08:37;;;;;;;18.27;10.80;;;1.80;99.90;;;;;;5012954;28;20454;-66
2020/12/01 08:11:06;;;;;;;32.87;18.07;;;1.80;99.90;;;;;;5012701;28;20933;-67
2020/12/01 08:13:35;;;;;;;26.67;15.87;;;1.80;99.90;;;;;;5012564;28;20443;-66
2020/12/01 08:16:13;;;;;;;26.00;15.57;;;1.80;99.90;;;;;;5012420;28;20486;-66
2020/12/01 08:18:39;;;;;;;30.73;17.47;;;1.80;99.90;;;;;;5012835;28;20423;-66
2020/12/01 08:21:06;;;;;;;29.33;17.83;;;1.70;99.90;;;;;;4995025;28;20507;-65
2020/12/01 08:23:33;;;;;;;35.00;20.83;;;1.70;99.90;;;;;;5012609;28;20188;-65
2020/12/01 08:26:23;;;;;;;34.13;20.03;;;1.80;99.90;;;;;;5012288;28;20797;-64
2020/12/01 08:28:59;;;;;;;34.53;19.40;;;1.90;99.90;;;;;;5012389;28;20474;-67
2020/12/01 08:31:40;;;;;;;31.60;20.57;;;1.90;99.90;;;;;;5012313;28;20423;-68
2020/12/01 08:35:03;;;;;;;28.87;19.27;;;2.00;99.90;;;;;;5011993;28;20510;-63
2020/12/01 08:37:58;;;;;;;25.50;16.33;;;2.00;99.90;;;;;;5010551;28;20544;-68
2020/12/01 08:40:32;;;;;;;27.50;16.53;;;2.10;99.90;;;;;;5010069;28;20431;-66
2020/12/01 08:42:58;;;;;;;26.20;16.00;;;2.10;99.90;;;;;;4994385;28;20423;-64
2020/12/01 08:46:01;;;;;;;20.80;14.00;;;2.10;99.90;;;;;;5011977;28;20459;-67
2020/12/01 08:48:46;;;;;;;29.50;17.70;;;2.10;99.90;;;;;;5013900;28;20228;-66
2020/12/01 08:51:21;;;;;;;27.37;16.27;;;2.10;99.90;;;;;;5012020;28;20421;-66
2020/12/01 08:54:08;;;;;;;29.77;19.23;;;2.20;99.90;;;;;;5012105;28;20822;-65
2020/12/01 08:56:48;;;;;;;31.53;19.43;;;2.30;99.90;;;;;;5011926;28;20414;-64
2020/12/01 08:59:21;;;;;;;27.37;17.67;;;2.30;99.90;;;;;;5012032;28;20511;-67
2020/12/01 09:01:47;;;;;;;27.97;16.90;;;2.30;99.90;;;;;;4994941;28;20446;-66
2020/12/01 09:04:26;;;;;;;27.27;17.73;;;2.30;99.90;;;;;;5011721;28;20416;-67
2020/12/01 09:06:55;;;;;;;25.73;17.30;;;2.30;99.90;;;;;;5011963;28;20220;-66
2020/12/01 09:09:25;;;;;;;24.43;16.87;;;2.40;99.90;;;;;;5011708;28;20408;-66
2020/12/01 09:23:05;;;;;;;23.67;16.13;;;2.40;99.90;;;;;;5011516;28;20958;-65
2020/12/01 09:25:31;;;;;;;24.80;17.27;;;2.30;99.90;;;;;;5011530;28;20461;-67
2020/12/01 09:27:56;;;;;;;24.53;15.30;;;2.40;99.90;;;;;;5011709;28;20415;-65
2020/12/01 09:30:37;;;;;;;25.17;16.60;;;2.40;99.90;;;;;;5011319;28;20164;-66
2020/12/01 09:33:05;;;;;;;25.73;16.10;;;2.30;99.90;;;;;;5011669;28;20171;-64
2020/12/01 09:35:31;;;;;;;24.03;15.40;;;2.30;99.90;;;;;;5011140;28;20427;-67
2020/12/01 09:37:57;;;;;;;24.00;16.23;;;2.30;99.90;;;;;;5011162;28;20937;-65
2020/12/01 09:40:26;;;;;;;26.63;16.00;;;2.40;99.90;;;;;;5011350;28;20270;-64
2020/12/01 09:42:54;;;;;;;20.07;12.80;;;2.40;99.90;;;;;;5011119;28;20411;-66
2020/12/01 09:48:13;;;;;;;20.97;14.70;;;2.50;99.90;;;;;;5012810;28;20936;-63
2020/12/01 09:50:40;;;;;;;21.60;14.50;;;2.50;99.90;;;;;;5011027;28;20422;-66
2020/12/01 10:07:35;;;;;;;23.40;15.37;;;2.40;99.90;;;;;;5010933;28;20463;-66
2020/12/01 10:08:51;;;;;;;25.50;16.03;;;2.40;99.90;;;;;;5009022;28;20180;-66
2020/12/01 10:11:37;;;;;;;24.20;15.00;;;2.40;99.90;;;;;;5011038;28;20431;-66
2020/12/01 10:14:32;;;;;;;28.50;18.60;;;2.40;99.90;;;;;;5011181;28;20418;-67
2020/12/01 10:17:29;;;;;;;23.63;16.43;;;2.40;99.90;;;;;;5009998;28;20411;-66
2020/12/01 10:23:35;;;;;;;29.90;19.57;;;2.40;99.90;;;;;;5011059;28;20463;-67
2020/12/01 10:35:37;;;;;;;29.83;18.47;;;2.30;99.90;;;;;;5011004;28;20602;-67
2020/12/01 10:38:03;;;;;;;30.93;18.93;;;2.40;99.90;;;;;;5010848;28;20785;-65
2020/12/01 10:40:29;;;;;;;28.00;18.57;;;2.30;99.90;;;;;;5010655;28;20576;-64
2020/12/01 10:42:56;;;;;;;27.10;16.97;;;2.30;99.90;;;;;;5010853;28;20424;-68
2020/12/01 10:45:23;;;;;;;32.17;19.37;;;2.40;99.90;;;;;;5010481;28;20504;-66
2020/12/01 10:47:55;;;;;;;30.30;19.73;;;2.40;99.90;;;;;;5013148;28;21003;-68
2020/12/01 10:50:27;;;;;;;31.23;19.10;;;2.60;99.90;;;;;;5014241;28;20450;-69
2020/12/01 10:52:53;;;;;;;30.73;18.83;;;2.60;99.90;;;;;;5014291;28;20411;-67
2020/12/01 10:55:22;;;;;;;26.97;17.40;;;2.70;99.90;;;;;;5014154;28;20423;-64
2020/12/01 10:57:52;;;;;;;28.03;18.07;;;2.70;99.90;;;;;;5014057;28;20437;-65
2020/12/01 11:00:20;;;;;;;25.93;16.70;;;2.70;99.90;;;;;;5014027;28;20550;-68
2020/12/01 11:02:45;;;;;;;27.33;17.57;;;2.70;99.90;;;;;;5013598;28;20455;-67
2020/12/01 11:05:17;;;;;;;28.73;18.27;;;2.70;99.90;;;;;;5014025;28;21031;-67
2020/12/01 11:07:43;;;;;;;22.23;14.27;;;2.70;99.90;;;;;;5013905;28;20244;-65
2020/12/01 11:10:09;;;;;;;31.37;18.73;;;2.60;99.90;;;;;;5014080;28;20423;-63
2020/12/01 11:12:35;;;;;;;27.03;17.30;;;2.60;99.90;;;;;;5014017;28;20176;-65
2020/12/01 11:15:01;;;;;;;28.57;19.10;;;2.70;99.90;;;;;;5014177;28;20262;-63
2020/12/01 11:17:26;;;;;;;29.07;18.77;;;2.70;99.90;;;;;;5013807;28;20235;-64
2020/12/01 11:19:52;;;;;;;32.97;20.10;;;2.70;99.90;;;;;;5014068;28;20176;-67
2020/12/01 11:22:18;;;;;;;27.80;17.73;;;2.70;99.90;;;;;;5013854;28;20180;-68
2020/12/01 11:24:43;;;;;;;29.57;18.23;;;2.80;99.90;;;;;;5013644;28;20235;-69
2020/12/01 11:27:10;;;;;;;32.93;20.07;;;2.80;99.90;;;;;;5013592;28;20255;-67
2020/12/01 11:29:36;;;;;;;35.10;19.90;;;2.80;99.90;;;;;;5013695;28;20643;-66
2020/12/01 11:32:02;;;;;;;31.57;19.23;;;2.80;99.90;;;;;;5013372;28;20491;-64
2020/12/01 11:34:28;;;;;;;32.07;18.97;;;2.70;99.90;;;;;;4996076;28;20463;-66
2020/12/01 11:36:55;;;;;;;29.93;17.57;;;2.70;99.90;;;;;;5013356;28;20457;-67
2020/12/01 11:39:21;;;;;;;31.13;18.20;;;2.70;99.90;;;;;;5013558;28;20183;-66
2020/12/01 11:41:47;;;;;;;31.27;19.27;;;2.70;99.90;;;;;;5013341;28;20499;-65
2020/12/01 11:44:13;;;;;;;29.50;19.57;;;2.70;99.90;;;;;;5013360;28;20412;-64
2020/12/01 11:46:39;;;;;;;33.53;19.83;;;2.70;99.90;;;;;;5013510;28;20359;-65
2020/12/01 11:49:05;;;;;;;35.10;20.73;;;2.60;99.90;;;;;;5016021;28;20458;-66
2020/12/01 11:51:32;;;;;;;31.33;18.90;;;2.60;99.90;;;;;;5013171;28;20424;-65
2020/12/01 11:53:58;;;;;;;34.83;20.40;;;2.70;99.90;;;;;;5012985;28;20885;-66
2020/12/01 11:56:24;;;;;;;32.37;19.07;;;2.80;99.90;;;;;;5013056;28;20426;-66
2020/12/01 11:58:50;;;;;;;33.47;19.17;;;2.70;99.90;;;;;;4991748;28;20258;-68
2020/12/01 12:01:15;;;;;;;34.80;19.47;;;2.80;99.90;;;;;;4993592;28;20535;-63
2020/12/01 12:03:42;;;;;;;32.13;20.23;;;2.80;99.90;;;;;;4993565;28;20184;-67
2020/12/01 12:06:08;;;;;;;31.43;19.03;;;2.80;99.90;;;;;;4993377;28;20219;-65
2020/12/01 12:08:34;;;;;;;34.17;20.87;;;2.80;99.90;;;;;;4993108;28;20480;-64
2020/12/01 12:11:00;;;;;;;32.47;20.67;;;2.90;99.90;;;;;;4993218;28;20413;-67
2020/12/01 12:13:27;;;;;;;32.07;19.70;;;2.90;99.90;;;;;;4993124;28;20195;-66
2020/12/01 12:15:53;;;;;;;28.13;17.77;;;2.90;99.90;;;;;;4993163;28;20476;-66
2020/12/01 12:18:18;;;;;;;30.33;18.77;;;2.90;99.90;;;;;;4992882;28;20419;-65
2020/12/01 12:20:44;;;;;;;27.33;17.87;;;3.00;99.90;;;;;;4993042;28;20416;-63
2020/12/01 12:23:09;;;;;;;30.50;18.27;;;2.90;99.90;;;;;;4993162;28;20224;-64
2020/12/01 12:25:35;;;;;;;29.33;18.30;;;3.00;99.90;;;;;;4992719;28;20185;-64
2020/12/01 12:28:01;;;;;;;30.33;18.63;;;3.00;99.90;;;;;;4992942;28;20172;-67
2020/12/01 12:30:26;;;;;;;32.00;18.03;;;3.00;99.90;;;;;;4992668;28;20177;-65
2020/12/01 12:32:52;;;;;;;29.00;17.37;;;3.10;99.90;;;;;;4992880;28;20181;-66
2020/12/01 12:35:18;;;;;;;29.40;18.43;;;3.00;99.90;;;;;;4995674;28;20184;-63
2020/12/01 12:37:44;;;;;;;31.20;17.50;;;3.10;99.90;;;;;;5007598;28;20185;-66
2020/12/01 12:40:09;;;;;;;25.27;17.37;;;3.00;99.90;;;;;;5000954;28;20188;-64
2020/12/01 12:42:35;;;;;;;27.57;17.40;;;3.10;99.90;;;;;;4991745;28;20184;-65
2020/12/01 12:45:01;;;;;;;27.53;17.90;;;3.10;99.90;;;;;;4992713;28;20594;-64
2020/12/01 12:47:26;;;;;;;26.00;16.03;;;3.10;99.90;;;;;;4998294;28;20212;-67
2020/12/01 12:49:52;;;;;;;26.77;17.77;;;3.10;99.90;;;;;;5012078;28;20181;-68
2020/12/01 12:52:17;;;;;;;28.57;17.50;;;3.20;99.90;;;;;;5012151;28;20690;-65
2020/12/01 12:54:43;;;;;;;24.17;16.90;;;3.10;99.90;;;;;;5012149;28;20180;-66
2020/12/01 12:57:09;;;;;;;26.93;17.30;;;3.10;99.90;;;;;;5011964;28;20203;-65
2020/12/01 12:59:34;;;;;;;27.60;18.23;;;3.10;99.90;;;;;;5011723;28;20267;-66
2020/12/01 13:02:00;;;;;;;30.97;17.17;;;3.10;99.90;;;;;;5011727;28;20176;-66
2020/12/01 13:04:25;;;;;;;27.57;17.37;;;3.00;99.90;;;;;;5012010;28;20212;-64
2020/12/01 13:06:51;;;;;;;29.57;17.67;;;3.00;99.90;;;;;;5011627;28;20537;-67
2020/12/01 13:09:17;;;;;;;23.73;15.27;;;3.00;99.90;;;;;;5011999;28;20216;-65
2020/12/01 13:11:42;;;;;;;28.77;16.57;;;3.10;99.90;;;;;;5008991;28;20172;-67
2020/12/01 13:14:09;;;;;;;26.37;17.70;;;3.00;99.90;;;;;;5011802;28;20168;-66
2020/12/01 13:16:34;;;;;;;31.43;19.53;;;3.00;99.90;;;;;;5012203;28;20519;-63
2020/12/01 13:19:00;;;;;;;30.17;18.90;;;3.10;99.90;;;;;;5012132;28;20415;-65
2020/12/01 13:21:25;;;;;;;28.40;16.67;;;3.10;99.90;;;;;;5012292;28;20192;-64
2020/12/01 13:23:51;;;;;;;29.63;18.07;;;3.20;99.90;;;;;;5012065;28;20184;-68
2020/12/01 13:26:20;;;;;;;27.80;18.27;;;3.10;99.90;;;;;;5011873;28;20568;-67
2020/12/01 13:28:46;;;;;;;26.40;16.93;;;3.10;99.90;;;;;;5012110;28;20183;-65
2020/12/01 13:31:12;;;;;;;29.03;17.10;;;3.10;99.90;;;;;;5011810;28;20920;-64
2020/12/01 13:33:38;;;;;;;26.73;15.63;;;3.10;99.90;;;;;;5009173;28;20427;-66
2020/12/01 13:36:03;;;;;;;28.87;20.07;;;3.10;99.90;;;;;;5011706;28;20180;-64